Time,TemperatureF,DewpointF,PressureIn,WindDirection,WindDirectionDegrees,WindSpeedMPH,WindSpeedGustMPH,Humidity,HourlyPrecipIn,Conditions,Clouds,dailyrainin,SoftwareType,DateUTC
2013-06-14 00:01:00,80.6,77.1,29.90,SSE,153,0.0,0.0,89,0.00,,---,0.02,VWS V14.01,2013-06-14 05:01:00,
2013-06-14 00:06:00,80.6,77.1,29.90,SE,145,0.0,0.0,89,0.00,,---,0.00,VWS V14.01,2013-06-14 05:06:00,
2013-06-14 00:11:00,80.6,77.1,29.90,SSE,149,0.0,0.0,89,0.00,,---,0.00,VWS V14.01,2013-06-14 05:11:00,
2013-06-14 00:16:00,80.6,77.1,29.89,SE,137,2.0,3.0,89,0.00,,---,0.00,VWS V14.01,2013-06-14 05:16:00,
2013-06-14 00:21:00,80.7,77.2,29.90,SE,132,0.0,0.0,89,0.00,,---,0.00,VWS V14.01,2013-06-14 05:21:00,
2013-06-14 00:26:00,80.7,77.2,29.90,SE,140,0.0,0.0,89,0.00,,---,0.00,VWS V14.01,2013-06-14 05:26:00,
2013-06-14 00:31:00,80.7,77.2,29.90,SSE,148,0.0,0.0,89,0.00,,---,0.00,VWS V14.01,2013-06-14 05:31:00,
2013-06-14 00:36:00,80.7,77.2,29.90,SSE,155,0.0,0.0,89,0.00,,---,0.00,VWS V14.01,2013-06-14 05:36:00,
2013-06-14 00:40:00,80.7,77.2,29.90,SSE,157,0.0,0.0,89,0.00,,---,0.00,VWS V14.01,2013-06-14 05:40:00,
2013-06-14 00:45:00,80.6,77.1,29.89,SSE,153,6.0,6.0,89,0.00,,---,0.00,VWS V14.01,2013-06-14 05:45:00,
2013-06-14 00:50:00,80.6,77.1,29.89,SE,136,4.0,5.0,89,0.00,,---,0.00,VWS V14.01,2013-06-14 05:50:00,
2013-06-14 00:55:00,80.7,77.2,29.89,SE,130,3.0,3.0,89,0.00,,---,0.00,VWS V14.01,2013-06-14 05:55:00,
2013-06-14 01:00:00,80.7,77.2,29.89,ESE,123,0.0,0.0,89,0.00,,---,0.00,VWS V14.01,2013-06-14 06:00:00,
2013-06-14 01:05:00,80.7,77.2,29.89,SSE,150,0.0,3.0,89,0.00,,---,0.00,VWS V14.01,2013-06-14 06:05:00,
2013-06-14 01:10:00,80.7,77.2,29.88,SSE,148,4.0,5.0,89,0.00,,---,0.00,VWS V14.01,2013-06-14 06:10:00,
2013-06-14 01:15:00,80.7,77.2,29.89,SE,144,2.0,3.0,89,0.00,,---,0.00,VWS V14.01,2013-06-14 06:15:00,
2013-06-14 01:20:00,80.7,77.2,29.89,SSE,153,0.0,0.0,89,0.00,,---,0.00,VWS V14.01,2013-06-14 06:20:00,
2013-06-14 01:25:00,80.6,77.1,29.89,SE,134,2.0,3.0,89,0.00,,---,0.00,VWS V14.01,2013-06-14 06:25:00,
2013-06-14 01:30:00,80.5,77.0,29.89,SSE,149,2.0,2.0,89,0.00,,---,0.00,VWS V14.01,2013-06-14 06:30:00,
2013-06-14 01:35:00,80.6,77.1,29.89,SE,146,4.0,4.0,89,0.00,,---,0.00,VWS V14.01,2013-06-14 06:35:00,
2013-06-14 01:40:00,80.6,77.1,29.89,SSE,167,3.0,4.0,89,0.00,,---,0.00,VWS V14.01,2013-06-14 06:40:00,
2013-06-14 01:45:00,80.6,77.1,29.89,SE,137,5.0,6.0,89,0.00,,---,0.00,VWS V14.01,2013-06-14 06:45:00,
2013-06-14 01:50:00,80.6,77.1,29.89,SE,130,5.0,5.0,89,0.00,,---,0.00,VWS V14.01,2013-06-14 06:50:00,
2013-06-14 01:55:00,80.5,76.6,29.88,SSE,163,1.0,2.0,88,0.00,,---,0.00,VWS V14.01,2013-06-14 06:55:00,
2013-06-14 02:00:00,80.5,76.6,29.88,SE,135,6.0,6.0,88,0.00,,---,0.00,VWS V14.01,2013-06-14 07:00:00,
2013-06-14 02:05:00,80.5,76.6,29.88,SE,142,6.0,6.0,88,0.00,,---,0.00,VWS V14.01,2013-06-14 07:05:00,
2013-06-14 02:10:00,80.6,76.7,29.88,SE,132,1.0,1.0,88,0.00,,---,0.00,VWS V14.01,2013-06-14 07:10:00,
2013-06-14 02:15:00,80.6,76.7,29.88,SSE,148,3.0,4.0,88,0.00,,---,0.00,VWS V14.01,2013-06-14 07:15:00,
2013-06-14 02:20:00,80.6,76.7,29.88,SE,146,4.0,5.0,88,0.00,,---,0.00,VWS V14.01,2013-06-14 07:20:00,
2013-06-14 02:25:00,80.6,76.7,29.88,ESE,121,2.0,7.0,88,0.00,,---,0.00,VWS V14.01,2013-06-14 07:25:00,
2013-06-14 02:30:00,80.7,76.8,29.88,SE,126,5.0,6.0,88,0.00,,---,0.00,VWS V14.01,2013-06-14 07:30:00,
2013-06-14 02:35:00,80.7,76.8,29.88,SE,146,4.0,9.0,88,0.00,,---,0.00,VWS V14.01,2013-06-14 07:35:00,
2013-06-14 02:40:00,80.6,76.7,29.88,SE,128,4.0,5.0,88,0.00,,---,0.00,VWS V14.01,2013-06-14 07:40:00,
2013-06-14 02:45:00,80.7,77.2,29.88,ESE,117,2.0,5.0,89,0.00,,---,0.00,VWS V14.01,2013-06-14 07:45:00,
2013-06-14 02:50:00,80.6,77.1,29.88,SSE,147,5.0,5.0,89,0.00,,---,0.00,VWS V14.01,2013-06-14 07:50:00,
2013-06-14 02:55:00,80.6,77.1,29.88,SE,133,4.0,5.0,89,0.00,,---,0.00,VWS V14.01,2013-06-14 07:55:00,
2013-06-14 03:00:00,80.6,77.1,29.88,SSE,159,2.0,5.0,89,0.00,,---,0.00,VWS V14.01,2013-06-14 08:00:00,
2013-06-14 03:05:00,80.5,77.0,29.87,SSE,153,0.0,2.0,89,0.00,,---,0.00,VWS V14.01,2013-06-14 08:05:00,
2013-06-14 03:10:00,80.5,77.0,29.87,SSE,150,4.0,4.0,89,0.00,,---,0.00,VWS V14.01,2013-06-14 08:10:00,
2013-06-14 03:15:00,80.4,76.9,29.87,SE,138,2.0,4.0,89,0.00,,---,0.00,VWS V14.01,2013-06-14 08:15:00,
2013-06-14 03:20:00,80.4,76.9,29.87,SE,144,3.0,3.0,89,0.00,,---,0.00,VWS V14.01,2013-06-14 08:20:00,
2013-06-14 03:25:00,80.4,76.9,29.87,SE,145,2.0,5.0,89,0.00,,---,0.00,VWS V14.01,2013-06-14 08:25:00,
2013-06-14 03:30:00,80.4,76.9,29.87,SE,138,0.0,3.0,89,0.00,,---,0.00,VWS V14.01,2013-06-14 08:30:00,
2013-06-14 03:35:00,80.4,76.9,29.87,SE,137,2.0,3.0,89,0.00,,---,0.00,VWS V14.01,2013-06-14 08:35:00,
2013-06-14 03:40:00,80.5,77.0,29.87,SE,145,1.0,3.0,89,0.00,,---,0.00,VWS V14.01,2013-06-14 08:40:00,
2013-06-14 03:45:00,80.5,77.0,29.86,SSE,148,3.0,3.0,89,0.00,,---,0.00,VWS V14.01,2013-06-14 08:45:00,
2013-06-14 03:50:00,80.5,77.0,29.86,ESE,111,5.0,5.0,89,0.00,,---,0.00,VWS V14.01,2013-06-14 08:50:00,
2013-06-14 03:55:00,80.4,76.9,29.86,SSE,159,2.0,5.0,89,0.00,,---,0.00,VWS V14.01,2013-06-14 08:55:00,
2013-06-14 04:00:00,80.5,77.0,29.87,SE,132,4.0,7.0,89,0.00,,---,0.00,VWS V14.01,2013-06-14 09:00:00,
2013-06-14 04:05:00,80.4,76.9,29.87,SSE,149,2.0,3.0,89,0.00,,---,0.00,VWS V14.01,2013-06-14 09:05:00,
2013-06-14 04:10:00,80.5,77.0,29.87,SE,140,0.0,0.0,89,0.00,,---,0.00,VWS V14.01,2013-06-14 09:10:00,
2013-06-14 04:15:00,80.4,76.9,29.87,SE,124,0.0,0.0,89,0.00,,---,0.00,VWS V14.01,2013-06-14 09:15:00,
2013-06-14 04:20:00,80.5,77.0,29.87,SE,136,0.0,0.0,89,0.00,,---,0.00,VWS V14.01,2013-06-14 09:20:00,
2013-06-14 04:25:00,80.5,77.0,29.87,SSE,159,0.0,0.0,89,0.00,,---,0.00,VWS V14.01,2013-06-14 09:25:00,
2013-06-14 04:30:00,80.5,77.0,29.87,SE,134,0.0,0.0,89,0.00,,---,0.00,VWS V14.01,2013-06-14 09:30:00,
2013-06-14 04:35:00,80.5,77.0,29.87,SE,130,0.0,0.0,89,0.00,,---,0.00,VWS V14.01,2013-06-14 09:35:00,
2013-06-14 04:40:00,80.4,76.9,29.87,SSE,148,0.0,0.0,89,0.00,,---,0.00,VWS V14.01,2013-06-14 09:40:00,
2013-06-14 04:45:00,80.4,76.9,29.87,SSE,159,0.0,0.0,89,0.00,,---,0.00,VWS V14.01,2013-06-14 09:45:00,
2013-06-14 04:50:00,80.3,76.8,29.87,SSE,159,0.0,0.0,89,0.00,,---,0.00,VWS V14.01,2013-06-14 09:50:00,
2013-06-14 04:55:00,80.2,76.7,29.88,South,171,0.0,0.0,89,0.00,,---,0.00,VWS V14.01,2013-06-14 09:55:00,
2013-06-14 05:00:00,80.1,76.9,29.88,South,182,0.0,0.0,90,0.00,,---,0.00,VWS V14.01,2013-06-14 10:00:00,
2013-06-14 05:05:00,80.1,76.9,29.88,SSE,165,0.0,0.0,90,0.00,,---,0.00,VWS V14.01,2013-06-14 10:05:00,
2013-06-14 05:10:00,80.0,76.8,29.88,SSE,151,0.0,0.0,90,0.00,,---,0.00,VWS V14.01,2013-06-14 10:10:00,
2013-06-14 05:15:00,80.0,76.5,29.88,SSE,153,0.0,0.0,89,0.00,,---,0.00,VWS V14.01,2013-06-14 10:15:00,
2013-06-14 05:20:00,80.0,76.5,29.88,SE,141,0.0,0.0,89,0.00,,---,0.00,VWS V14.01,2013-06-14 10:20:00,
2013-06-14 05:25:00,80.0,76.5,29.88,SE,138,0.0,0.0,89,0.00,,---,0.00,VWS V14.01,2013-06-14 10:25:00,
2013-06-14 05:30:00,80.0,76.5,29.88,SSE,149,0.0,0.0,89,0.00,,---,0.00,VWS V14.01,2013-06-14 10:30:00,
2013-06-14 05:35:00,80.1,76.6,29.88,SSE,152,0.0,0.0,89,0.00,,---,0.00,VWS V14.01,2013-06-14 10:35:00,
2013-06-14 05:40:00,80.2,76.7,29.88,SE,136,0.0,0.0,89,0.00,,---,0.00,VWS V14.01,2013-06-14 10:40:00,
2013-06-14 05:45:00,80.2,76.7,29.89,SSE,155,0.0,0.0,89,0.00,,---,0.00,VWS V14.01,2013-06-14 10:45:00,
2013-06-14 05:50:00,80.2,76.7,29.88,SE,133,0.0,0.0,89,0.00,,---,0.00,VWS V14.01,2013-06-14 10:50:00,
2013-06-14 05:55:00,80.3,76.8,29.89,ESE,123,0.0,0.0,89,0.00,,---,0.00,VWS V14.01,2013-06-14 10:55:00,
2013-06-14 06:00:00,80.3,76.8,29.89,ESE,111,0.0,0.0,89,0.00,,---,0.00,VWS V14.01,2013-06-14 11:00:00,
2013-06-14 06:05:00,80.3,76.8,29.89,SE,126,0.0,0.0,89,0.00,,---,0.00,VWS V14.01,2013-06-14 11:05:00,
2013-06-14 06:10:00,80.3,76.8,29.89,SE,129,0.0,0.0,89,0.00,,---,0.00,VWS V14.01,2013-06-14 11:10:00,
2013-06-14 06:15:00,80.3,76.8,29.89,SSE,157,0.0,0.0,89,0.00,,---,0.00,VWS V14.01,2013-06-14 11:15:00,
2013-06-14 06:20:00,80.3,76.8,29.89,SE,124,0.0,0.0,89,0.00,,---,0.00,VWS V14.01,2013-06-14 11:20:00,
2013-06-14 06:25:00,80.3,76.8,29.89,SSE,148,0.0,0.0,89,0.00,,---,0.00,VWS V14.01,2013-06-14 11:25:00,
2013-06-14 06:30:00,80.4,76.9,29.90,SE,137,0.0,0.0,89,0.00,,---,0.00,VWS V14.01,2013-06-14 11:30:00,
2013-06-14 06:35:00,80.4,76.9,29.90,SE,144,0.0,0.0,89,0.00,,---,0.00,VWS V14.01,2013-06-14 11:35:00,
2013-06-14 06:39:00,80.3,76.8,29.90,SSE,152,0.0,0.0,89,0.00,,---,0.00,VWS V14.01,2013-06-14 11:39:00,
2013-06-14 06:44:00,80.4,76.9,29.90,SSE,150,0.0,0.0,89,0.00,,---,0.00,VWS V14.01,2013-06-14 11:44:00,
2013-06-14 06:49:00,80.4,77.2,29.90,SE,145,0.0,0.0,90,0.00,,---,0.00,VWS V14.01,2013-06-14 11:49:00,
2013-06-14 06:54:00,80.4,77.2,29.90,SE,146,0.0,0.0,90,0.00,,---,0.00,VWS V14.01,2013-06-14 11:54:00,
2013-06-14 06:59:00,80.5,77.3,29.90,SE,146,0.0,0.0,90,0.00,,---,0.00,VWS V14.01,2013-06-14 11:59:00,
2013-06-14 07:04:00,80.5,77.3,29.90,SE,126,0.0,0.0,90,0.00,,---,0.00,VWS V14.01,2013-06-14 12:04:00,
2013-06-14 07:09:00,80.5,77.3,29.90,SSE,152,0.0,0.0,90,0.00,,---,0.00,VWS V14.01,2013-06-14 12:09:00,
2013-06-14 07:14:00,80.6,77.4,29.90,SSE,151,0.0,0.0,90,0.00,,---,0.00,VWS V14.01,2013-06-14 12:14:00,
2013-06-14 07:19:00,80.6,77.4,29.90,SSE,155,0.0,0.0,90,0.00,,---,0.00,VWS V14.01,2013-06-14 12:19:00,
2013-06-14 07:24:00,80.6,77.4,29.90,SSE,147,0.0,0.0,90,0.00,,---,0.00,VWS V14.01,2013-06-14 12:24:00,
2013-06-14 07:29:00,80.7,77.5,29.90,SSE,161,0.0,0.0,90,0.00,,---,0.00,VWS V14.01,2013-06-14 12:29:00,
2013-06-14 07:34:00,80.7,77.5,29.90,ESE,121,0.0,0.0,90,0.00,,---,0.00,VWS V14.01,2013-06-14 12:34:00,
2013-06-14 07:39:00,80.8,77.6,29.91,SE,134,0.0,0.0,90,0.00,,---,0.00,VWS V14.01,2013-06-14 12:39:00,
2013-06-14 07:44:00,80.9,77.7,29.91,SE,143,0.0,0.0,90,0.00,,---,0.00,VWS V14.01,2013-06-14 12:44:00,
2013-06-14 07:49:00,81.0,77.5,29.91,SSE,150,0.0,0.0,89,0.00,,---,0.00,VWS V14.01,2013-06-14 12:49:00,
2013-06-14 07:54:00,81.1,77.6,29.91,SE,136,4.0,10.0,89,0.00,,---,0.00,VWS V14.01,2013-06-14 12:54:00,
2013-06-14 07:59:00,81.1,77.6,29.91,SE,128,3.0,6.0,89,0.00,,---,0.00,VWS V14.01,2013-06-14 12:59:00,
2013-06-14 08:04:00,81.2,77.7,29.91,ESE,106,5.0,5.0,89,0.00,,---,0.00,VWS V14.01,2013-06-14 13:04:00,
2013-06-14 08:09:00,81.2,78.0,29.91,ESE,117,2.0,5.0,90,0.01,,---,0.01,VWS V14.01,2013-06-14 13:09:00,
2013-06-14 08:14:00,81.1,77.6,29.91,SE,140,1.0,6.0,89,0.01,,---,0.01,VWS V14.01,2013-06-14 13:14:00,
2013-06-14 08:19:00,81.0,77.8,29.91,SSE,162,2.0,7.0,90,0.01,,---,0.01,VWS V14.01,2013-06-14 13:19:00,
2013-06-14 08:24:00,81.0,77.8,29.91,SE,130,4.0,6.0,90,0.01,,---,0.01,VWS V14.01,2013-06-14 13:24:00,
2013-06-14 08:29:00,81.0,77.8,29.92,SE,145,6.0,6.0,90,0.01,,---,0.01,VWS V14.01,2013-06-14 13:29:00,
2013-06-14 08:34:00,81.1,77.9,29.92,SSE,148,1.0,8.0,90,0.01,,---,0.01,VWS V14.01,2013-06-14 13:34:00,
2013-06-14 08:39:00,81.1,77.9,29.92,SE,137,3.0,5.0,90,0.01,,---,0.01,VWS V14.01,2013-06-14 13:39:00,
2013-06-14 08:44:00,81.1,77.9,29.92,SE,137,4.0,6.0,90,0.01,,---,0.01,VWS V14.01,2013-06-14 13:44:00,
2013-06-14 08:49:00,81.1,77.9,29.92,SE,132,4.0,7.0,90,0.01,,---,0.01,VWS V14.01,2013-06-14 13:49:00,
2013-06-14 08:54:00,81.2,78.0,29.92,SE,136,2.0,9.0,90,0.01,,---,0.01,VWS V14.01,2013-06-14 13:54:00,
2013-06-14 08:59:00,81.3,78.1,29.92,SE,136,5.0,6.0,90,0.01,,---,0.01,VWS V14.01,2013-06-14 13:59:00,
2013-06-14 09:04:00,81.4,78.2,29.92,SE,130,3.0,6.0,90,0.01,,---,0.01,VWS V14.01,2013-06-14 14:04:00,
2013-06-14 09:09:00,81.5,78.3,29.93,SSE,148,9.0,9.0,90,0.01,,---,0.01,VWS V14.01,2013-06-14 14:09:00,
2013-06-14 09:14:00,81.6,78.4,29.93,SSE,147,2.0,7.0,90,0.00,,---,0.01,VWS V14.01,2013-06-14 14:14:00,
2013-06-14 09:19:00,81.8,78.6,29.93,SSE,148,6.0,10.0,90,0.00,,---,0.01,VWS V14.01,2013-06-14 14:19:00,
2013-06-14 09:24:00,81.9,78.7,29.93,SE,136,5.0,9.0,90,0.00,,---,0.01,VWS V14.01,2013-06-14 14:24:00,
2013-06-14 09:29:00,82.2,78.6,29.93,SE,134,5.0,9.0,89,0.00,,---,0.01,VWS V14.01,2013-06-14 14:29:00,
2013-06-14 09:34:00,82.6,79.0,29.93,SSE,152,7.0,9.0,89,0.00,,---,0.01,VWS V14.01,2013-06-14 14:34:00,
2013-06-14 09:39:00,82.9,79.3,29.93,SE,136,4.0,10.0,89,0.00,,---,0.01,VWS V14.01,2013-06-14 14:39:00,
2013-06-14 09:44:00,83.3,79.4,29.93,SSE,159,3.0,10.0,88,0.00,,---,0.01,VWS V14.01,2013-06-14 14:44:00,
2013-06-14 09:49:00,83.4,78.8,29.93,SE,142,7.0,9.0,86,0.00,,---,0.01,VWS V14.01,2013-06-14 14:49:00,
2013-06-14 09:54:00,83.5,78.9,29.93,South,172,9.0,9.0,86,0.00,,---,0.01,VWS V14.01,2013-06-14 14:54:00,
2013-06-14 09:59:00,83.6,79.0,29.93,SSE,157,5.0,7.0,86,0.00,,---,0.01,VWS V14.01,2013-06-14 14:59:00,
2013-06-14 10:04:00,83.6,79.0,29.93,ESE,115,8.0,13.0,86,0.00,,---,0.01,VWS V14.01,2013-06-14 15:04:00,
2013-06-14 10:09:00,83.6,79.0,29.93,SE,132,1.0,10.0,86,0.00,,---,0.01,VWS V14.01,2013-06-14 15:09:00,
2013-06-14 10:14:00,83.6,79.0,29.93,SE,144,4.0,5.0,86,0.00,,---,0.01,VWS V14.01,2013-06-14 15:14:00,
2013-06-14 10:19:00,83.5,78.5,29.93,ESE,121,5.0,10.0,85,0.00,,---,0.01,VWS V14.01,2013-06-14 15:19:00,
2013-06-14 10:24:00,83.5,78.5,29.92,ESE,121,5.0,7.0,85,0.00,,---,0.01,VWS V14.01,2013-06-14 15:24:00,
2013-06-14 10:29:00,83.6,78.6,29.92,SE,140,5.0,10.0,85,0.00,,---,0.01,VWS V14.01,2013-06-14 15:29:00,
2013-06-14 10:34:00,83.7,78.7,29.92,ESE,121,5.0,5.0,85,0.00,,---,0.01,VWS V14.01,2013-06-14 15:34:00,
2013-06-14 10:39:00,83.8,78.4,29.92,SSE,155,3.0,6.0,84,0.00,,---,0.01,VWS V14.01,2013-06-14 15:39:00,
2013-06-14 10:44:00,83.9,78.9,29.92,ESE,122,2.0,6.0,85,0.00,,---,0.01,VWS V14.01,2013-06-14 15:44:00,
2013-06-14 10:49:00,84.0,78.7,29.91,SE,128,5.0,10.0,84,0.00,,---,0.01,VWS V14.01,2013-06-14 15:49:00,
2013-06-14 10:54:00,84.1,78.8,29.91,SSE,157,9.0,11.0,84,0.00,,---,0.01,VWS V14.01,2013-06-14 15:54:00,
2013-06-14 10:59:00,84.3,78.9,29.91,SE,126,9.0,12.0,84,0.00,,---,0.01,VWS V14.01,2013-06-14 15:59:00,
2013-06-14 11:04:00,84.5,78.8,29.91,SE,124,6.0,13.0,83,0.00,,---,0.01,VWS V14.01,2013-06-14 16:04:00,
2013-06-14 11:09:00,84.5,79.1,29.91,ESE,105,11.0,11.0,84,0.00,,---,0.01,VWS V14.01,2013-06-14 16:09:00,
2013-06-14 11:14:00,84.4,78.7,29.91,ESE,103,7.0,10.0,83,0.00,,---,0.01,VWS V14.01,2013-06-14 16:14:00,
2013-06-14 11:19:00,84.5,79.1,29.91,SSE,156,4.0,11.0,84,0.00,,---,0.01,VWS V14.01,2013-06-14 16:19:00,
2013-06-14 11:24:00,84.6,78.5,29.91,ESE,123,7.0,13.0,82,0.00,,---,0.01,VWS V14.01,2013-06-14 16:24:00,
2013-06-14 11:29:00,84.6,78.9,29.91,SSE,148,4.0,5.0,83,0.00,,---,0.01,VWS V14.01,2013-06-14 16:29:00,
2013-06-14 11:34:00,84.6,78.1,29.91,SE,134,5.0,13.0,81,0.00,,---,0.01,VWS V14.01,2013-06-14 16:34:00,
2013-06-14 11:39:00,84.7,78.6,29.91,SE,130,7.0,13.0,82,0.00,,---,0.01,VWS V14.01,2013-06-14 16:39:00,
2013-06-14 11:44:00,84.9,78.8,29.91,SSE,155,2.0,4.0,82,0.00,,---,0.01,VWS V14.01,2013-06-14 16:44:00,
2013-06-14 11:49:00,85.2,79.1,29.91,SE,138,9.0,9.0,82,0.00,,---,0.01,VWS V14.01,2013-06-14 16:49:00,
2013-06-14 11:54:00,85.3,79.2,29.90,ESE,121,8.0,9.0,82,0.00,,---,0.01,VWS V14.01,2013-06-14 16:54:00,
2013-06-14 11:59:00,85.5,79.4,29.90,SE,143,11.0,12.0,82,0.00,,---,0.01,VWS V14.01,2013-06-14 16:59:00,
2013-06-14 12:04:00,85.6,78.7,29.90,SE,128,10.0,14.0,80,0.00,,---,0.01,VWS V14.01,2013-06-14 17:04:00,
2013-06-14 12:08:00,86.3,79.8,29.89,SE,141,7.0,10.0,81,0.00,,---,0.01,VWS V14.01,2013-06-14 17:08:00,
2013-06-14 12:13:00,87.1,79.8,29.89,SSE,149,5.0,9.0,79,0.00,,---,0.01,VWS V14.01,2013-06-14 17:13:00,
2013-06-14 12:18:00,87.5,79.8,29.89,SSE,153,12.0,16.0,78,0.00,,---,0.01,VWS V14.01,2013-06-14 17:18:00,
2013-06-14 12:23:00,87.4,79.3,29.89,SSE,148,14.0,14.0,77,0.00,,---,0.01,VWS V14.01,2013-06-14 17:23:00,
2013-06-14 12:28:00,87.5,79.4,29.89,SSE,150,6.0,8.0,77,0.00,,---,0.01,VWS V14.01,2013-06-14 17:28:00,
2013-06-14 12:33:00,87.5,79.0,29.89,ESE,109,7.0,10.0,76,0.00,,---,0.01,VWS V14.01,2013-06-14 17:33:00,
2013-06-14 12:38:00,87.2,79.5,29.89,SE,144,6.0,9.0,78,0.00,,---,0.01,VWS V14.01,2013-06-14 17:38:00,
2013-06-14 12:43:00,87.2,79.1,29.89,ESE,119,12.0,12.0,77,0.00,,---,0.01,VWS V14.01,2013-06-14 17:43:00,
2013-06-14 12:48:00,87.0,78.9,29.88,SSE,168,12.0,12.0,77,0.00,,---,0.01,VWS V14.01,2013-06-14 17:48:00,
2013-06-14 12:53:00,87.1,79.0,29.88,SSE,156,9.0,9.0,77,0.00,,---,0.01,VWS V14.01,2013-06-14 17:53:00,
2013-06-14 12:58:00,87.0,78.9,29.88,SSE,148,11.0,12.0,77,0.00,,---,0.01,VWS V14.01,2013-06-14 17:58:00,
2013-06-14 13:03:00,87.1,79.4,29.88,SE,129,9.0,9.0,78,0.00,,---,0.01,VWS V14.01,2013-06-14 18:03:00,
2013-06-14 13:08:00,87.2,79.1,29.88,SSE,162,14.0,14.0,77,0.00,,---,0.01,VWS V14.01,2013-06-14 18:08:00,
2013-06-14 13:13:00,87.0,79.3,29.88,ESE,120,3.0,10.0,78,0.00,,---,0.01,VWS V14.01,2013-06-14 18:13:00,
2013-06-14 13:18:00,87.0,79.7,29.88,SE,137,11.0,13.0,79,0.00,,---,0.01,VWS V14.01,2013-06-14 18:18:00,
2013-06-14 13:23:00,87.3,79.2,29.88,SE,131,9.0,11.0,77,0.00,,---,0.01,VWS V14.01,2013-06-14 18:23:00,
2013-06-14 13:28:00,87.5,79.8,29.88,SSE,164,4.0,4.0,78,0.00,,---,0.01,VWS V14.01,2013-06-14 18:28:00,
2013-06-14 13:33:00,87.7,79.2,29.87,SE,125,9.0,13.0,76,0.00,,---,0.01,VWS V14.01,2013-06-14 18:33:00,
2013-06-14 13:38:00,87.2,79.1,29.87,SE,132,8.0,10.0,77,0.00,,---,0.01,VWS V14.01,2013-06-14 18:38:00,
2013-06-14 13:43:00,86.9,78.8,29.88,ESE,118,5.0,10.0,77,0.00,,---,0.01,VWS V14.01,2013-06-14 18:43:00,
2013-06-14 13:48:00,87.2,79.5,29.88,SE,144,5.0,11.0,78,0.00,,---,0.01,VWS V14.01,2013-06-14 18:48:00,
2013-06-14 13:53:00,87.3,79.2,29.88,SE,139,13.0,18.0,77,0.00,,---,0.01,VWS V14.01,2013-06-14 18:53:00,
2013-06-14 13:58:00,87.3,79.2,29.88,SE,130,6.0,13.0,77,0.00,,---,0.01,VWS V14.01,2013-06-14 18:58:00,
2013-06-14 14:03:00,87.5,79.0,29.88,SE,134,7.0,12.0,76,0.00,,---,0.01,VWS V14.01,2013-06-14 19:03:00,
2013-06-14 14:08:00,87.5,79.8,29.87,SE,127,6.0,9.0,78,0.00,,---,0.01,VWS V14.01,2013-06-14 19:08:00,
2013-06-14 14:13:00,87.4,79.3,29.87,SE,140,13.0,14.0,77,0.00,,---,0.01,VWS V14.01,2013-06-14 19:13:00,
2013-06-14 14:18:00,87.4,79.3,29.87,SE,145,10.0,13.0,77,0.00,,---,0.01,VWS V14.01,2013-06-14 19:18:00,
2013-06-14 14:23:00,87.5,79.4,29.87,SE,134,4.0,9.0,77,0.00,,---,0.01,VWS V14.01,2013-06-14 19:23:00,
2013-06-14 14:28:00,87.4,79.3,29.87,South,169,9.0,9.0,77,0.00,,---,0.01,VWS V14.01,2013-06-14 19:28:00,
2013-06-14 14:33:00,87.6,79.5,29.86,SE,142,15.0,18.0,77,0.00,,---,0.01,VWS V14.01,2013-06-14 19:33:00,
2013-06-14 14:38:00,87.4,78.9,29.86,SE,142,9.0,12.0,76,0.00,,---,0.01,VWS V14.01,2013-06-14 19:38:00,
2013-06-14 14:43:00,87.3,78.8,29.86,South,179,2.0,11.0,76,0.00,,---,0.01,VWS V14.01,2013-06-14 19:43:00,
2013-06-14 14:48:00,87.5,79.4,29.86,East,98,10.0,13.0,77,0.00,,---,0.01,VWS V14.01,2013-06-14 19:48:00,
2013-06-14 14:53:00,87.7,79.2,29.86,SE,128,11.0,12.0,76,0.00,,---,0.01,VWS V14.01,2013-06-14 19:53:00,
2013-06-14 14:58:00,87.9,79.0,29.85,ESE,105,8.0,14.0,75,0.00,,---,0.01,VWS V14.01,2013-06-14 19:58:00,
2013-06-14 15:03:00,87.7,79.2,29.85,ESE,105,12.0,14.0,76,0.00,,---,0.01,VWS V14.01,2013-06-14 20:03:00,
2013-06-14 15:08:00,87.6,79.5,29.85,SE,143,11.0,16.0,77,0.00,,---,0.01,VWS V14.01,2013-06-14 20:08:00,
2013-06-14 15:13:00,87.6,79.1,29.85,SE,125,10.0,10.0,76,0.00,,---,0.01,VWS V14.01,2013-06-14 20:13:00,
2013-06-14 15:18:00,87.3,78.8,29.85,East,97,6.0,9.0,76,0.00,,---,0.01,VWS V14.01,2013-06-14 20:18:00,
2013-06-14 15:23:00,87.5,79.0,29.85,SE,140,7.0,14.0,76,0.00,,---,0.01,VWS V14.01,2013-06-14 20:23:00,
2013-06-14 15:28:00,87.6,78.7,29.85,ESE,111,9.0,11.0,75,0.00,,---,0.01,VWS V14.01,2013-06-14 20:28:00,
2013-06-14 15:33:00,87.5,79.0,29.85,SE,138,10.0,14.0,76,0.00,,---,0.01,VWS V14.01,2013-06-14 20:33:00,
2013-06-14 15:38:00,87.1,79.0,29.85,ESE,102,13.0,13.0,77,0.00,,---,0.01,VWS V14.01,2013-06-14 20:38:00,
2013-06-14 15:43:00,86.8,79.1,29.85,East,101,9.0,12.0,78,0.00,,---,0.01,VWS V14.01,2013-06-14 20:43:00,
2013-06-14 15:48:00,86.6,78.9,29.85,ESE,110,13.0,19.0,78,0.00,,---,0.01,VWS V14.01,2013-06-14 20:48:00,
2013-06-14 15:53:00,86.6,78.9,29.85,SE,130,13.0,14.0,78,0.00,,---,0.01,VWS V14.01,2013-06-14 20:53:00,
2013-06-14 15:58:00,86.7,78.6,29.84,East,98,10.0,13.0,77,0.00,,---,0.01,VWS V14.01,2013-06-14 20:58:00,
2013-06-14 16:03:00,86.8,78.7,29.84,ESE,112,10.0,14.0,77,0.00,,---,0.01,VWS V14.01,2013-06-14 21:03:00,
2013-06-14 16:08:00,86.6,78.9,29.84,SE,132,13.0,13.0,78,0.00,,---,0.01,VWS V14.01,2013-06-14 21:08:00,
2013-06-14 16:13:00,86.7,78.6,29.84,ESE,102,10.0,13.0,77,0.00,,---,0.01,VWS V14.01,2013-06-14 21:13:00,
2013-06-14 16:18:00,86.6,78.9,29.84,ESE,102,17.0,19.0,78,0.00,,---,0.01,VWS V14.01,2013-06-14 21:18:00,
2013-06-14 16:23:00,86.3,78.2,29.84,SE,140,10.0,13.0,77,0.00,,---,0.01,VWS V14.01,2013-06-14 21:23:00,
2013-06-14 16:28:00,86.2,78.9,29.84,ESE,119,11.0,11.0,79,0.00,,---,0.01,VWS V14.01,2013-06-14 21:28:00,
2013-06-14 16:33:00,86.1,78.4,29.84,SE,129,11.0,15.0,78,0.00,,---,0.01,VWS V14.01,2013-06-14 21:33:00,
2013-06-14 16:38:00,85.8,78.5,29.84,SE,141,10.0,12.0,79,0.00,,---,0.01,VWS V14.01,2013-06-14 21:38:00,
2013-06-14 16:43:00,85.5,78.2,29.84,ESE,114,12.0,14.0,79,0.00,,---,0.01,VWS V14.01,2013-06-14 21:43:00,
2013-06-14 16:48:00,85.5,78.2,29.84,ESE,103,7.0,7.0,79,0.00,,---,0.01,VWS V14.01,2013-06-14 21:48:00,
2013-06-14 16:53:00,85.6,78.7,29.84,ESE,102,13.0,13.0,80,0.00,,---,0.01,VWS V14.01,2013-06-14 21:53:00,
2013-06-14 16:58:00,85.3,78.4,29.84,ESE,117,11.0,13.0,80,0.00,,---,0.01,VWS V14.01,2013-06-14 21:58:00,
2013-06-14 17:03:00,85.0,78.1,29.84,ESE,105,14.0,14.0,80,0.00,,---,0.01,VWS V14.01,2013-06-14 22:03:00,
2013-06-14 17:08:00,84.9,78.4,29.85,ESE,119,6.0,11.0,81,0.00,,---,0.01,VWS V14.01,2013-06-14 22:08:00,
2013-06-14 17:13:00,84.8,77.9,29.85,SE,134,6.0,12.0,80,0.00,,---,0.01,VWS V14.01,2013-06-14 22:13:00,
2013-06-14 17:18:00,84.8,77.9,29.85,ESE,119,11.0,13.0,80,0.00,,---,0.01,VWS V14.01,2013-06-14 22:18:00,
2013-06-14 17:23:00,84.9,78.4,29.85,ESE,116,12.0,15.0,81,0.00,,---,0.01,VWS V14.01,2013-06-14 22:23:00,
2013-06-14 17:28:00,84.8,78.3,29.85,East,100,12.0,12.0,81,0.00,,---,0.01,VWS V14.01,2013-06-14 22:28:00,
2013-06-14 17:33:00,84.6,78.1,29.85,ESE,113,11.0,12.0,81,0.00,,---,0.01,VWS V14.01,2013-06-14 22:33:00,
2013-06-14 17:38:00,84.6,78.1,29.85,ESE,102,10.0,10.0,81,0.00,,---,0.01,VWS V14.01,2013-06-14 22:38:00,
2013-06-14 17:43:00,84.6,78.1,29.84,ESE,103,5.0,8.0,81,0.00,,---,0.01,VWS V14.01,2013-06-14 22:43:00,
2013-06-14 17:48:00,84.5,78.0,29.84,SE,141,8.0,14.0,81,0.00,,---,0.01,VWS V14.01,2013-06-14 22:48:00,
2013-06-14 17:53:00,84.4,77.9,29.84,SE,133,8.0,11.0,81,0.00,,---,0.01,VWS V14.01,2013-06-14 22:53:00,
2013-06-14 17:58:00,84.5,78.0,29.84,ESE,123,9.0,9.0,81,0.00,,---,0.01,VWS V14.01,2013-06-14 22:58:00,
2013-06-14 18:03:00,84.5,78.4,29.84,SSE,157,10.0,10.0,82,0.00,,---,0.01,VWS V14.01,2013-06-14 23:03:00,
2013-06-14 18:07:00,84.4,78.3,29.84,SE,127,7.0,12.0,82,0.00,,---,0.01,VWS V14.01,2013-06-14 23:07:00,
2013-06-14 18:12:00,84.3,78.2,29.84,SSE,159,4.0,7.0,82,0.00,,---,0.01,VWS V14.01,2013-06-14 23:12:00,
2013-06-14 18:17:00,84.2,78.1,29.84,SE,135,6.0,10.0,82,0.00,,---,0.01,VWS V14.01,2013-06-14 23:17:00,
2013-06-14 18:22:00,84.2,78.1,29.84,ESE,123,6.0,6.0,82,0.00,,---,0.01,VWS V14.01,2013-06-14 23:22:00,
2013-06-14 18:27:00,84.2,78.5,29.84,SSE,151,13.0,13.0,83,0.00,,---,0.01,VWS V14.01,2013-06-14 23:27:00,
2013-06-14 18:32:00,84.1,78.4,29.84,SSE,160,5.0,7.0,83,0.00,,---,0.01,VWS V14.01,2013-06-14 23:32:00,
2013-06-14 18:37:00,84.0,78.3,29.83,SE,135,7.0,7.0,83,0.00,,---,0.01,VWS V14.01,2013-06-14 23:37:00,
2013-06-14 18:42:00,83.9,78.2,29.83,SE,143,10.0,10.0,83,0.00,,---,0.01,VWS V14.01,2013-06-14 23:42:00,
2013-06-14 18:47:00,83.8,78.1,29.84,SE,133,9.0,9.0,83,0.00,,---,0.01,VWS V14.01,2013-06-14 23:47:00,
2013-06-14 18:52:00,83.8,78.4,29.84,East,99,6.0,8.0,84,0.00,,---,0.01,VWS V14.01,2013-06-14 23:52:00,
2013-06-14 18:57:00,83.8,78.4,29.84,ESE,118,11.0,11.0,84,0.00,,---,0.01,VWS V14.01,2013-06-14 23:57:00,
2013-06-14 19:02:00,83.8,78.4,29.84,SSE,149,6.0,6.0,84,0.00,,---,0.01,VWS V14.01,2013-06-15 00:02:00,
2013-06-14 19:07:00,83.9,78.6,29.84,SE,133,6.0,10.0,84,0.00,,---,0.01,VWS V14.01,2013-06-15 00:07:00,
2013-06-14 19:12:00,83.8,78.4,29.84,ESE,122,9.0,14.0,84,0.00,,---,0.01,VWS V14.01,2013-06-15 00:12:00,
2013-06-14 19:17:00,83.7,78.3,29.85,SE,134,6.0,6.0,84,0.00,,---,0.01,VWS V14.01,2013-06-15 00:17:00,
2013-06-14 19:22:00,83.8,78.4,29.85,ESE,113,4.0,7.0,84,0.00,,---,0.01,VWS V14.01,2013-06-15 00:22:00,
2013-06-14 19:27:00,83.7,78.3,29.85,SE,128,5.0,13.0,84,0.00,,---,0.01,VWS V14.01,2013-06-15 00:27:00,
2013-06-14 19:32:00,83.6,78.3,29.85,SE,130,9.0,14.0,84,0.00,,---,0.01,VWS V14.01,2013-06-15 00:32:00,
2013-06-14 19:37:00,83.5,78.2,29.85,SE,145,11.0,13.0,84,0.00,,---,0.01,VWS V14.01,2013-06-15 00:37:00,
2013-06-14 19:42:00,83.5,78.2,29.85,ESE,123,8.0,10.0,84,0.00,,---,0.01,VWS V14.01,2013-06-15 00:42:00,
2013-06-14 19:47:00,83.4,78.4,29.85,East,96,10.0,12.0,85,0.00,,---,0.01,VWS V14.01,2013-06-15 00:47:00,
2013-06-14 19:52:00,83.4,78.4,29.85,SE,125,6.0,10.0,85,0.00,,---,0.01,VWS V14.01,2013-06-15 00:52:00,
2013-06-14 19:57:00,83.3,78.3,29.85,East,96,10.0,10.0,85,0.00,,---,0.01,VWS V14.01,2013-06-15 00:57:00,
2013-06-14 20:02:00,83.2,78.2,29.85,SSE,149,3.0,9.0,85,0.00,,---,0.01,VWS V14.01,2013-06-15 01:02:00,
2013-06-14 20:07:00,83.2,78.2,29.85,SE,138,7.0,11.0,85,0.00,,---,0.01,VWS V14.01,2013-06-15 01:07:00,
2013-06-14 20:12:00,83.2,78.2,29.85,SE,140,5.0,11.0,85,0.00,,---,0.01,VWS V14.01,2013-06-15 01:12:00,
2013-06-14 20:17:00,83.1,78.1,29.85,ESE,106,6.0,7.0,85,0.00,,---,0.01,VWS V14.01,2013-06-15 01:17:00,
2013-06-14 20:22:00,83.0,78.0,29.85,SE,134,9.0,10.0,85,0.00,,---,0.01,VWS V14.01,2013-06-15 01:22:00,
2013-06-14 20:27:00,83.0,78.0,29.86,ESE,123,7.0,10.0,85,0.00,,---,0.01,VWS V14.01,2013-06-15 01:27:00,
2013-06-14 20:32:00,83.0,78.0,29.85,ESE,112,4.0,7.0,85,0.00,,---,0.01,VWS V14.01,2013-06-15 01:32:00,
2013-06-14 20:37:00,82.9,78.3,29.86,SE,124,3.0,6.0,86,0.00,,---,0.01,VWS V14.01,2013-06-15 01:37:00,
2013-06-14 20:42:00,82.8,78.2,29.86,SSE,149,5.0,5.0,86,0.00,,---,0.01,VWS V14.01,2013-06-15 01:42:00,
2013-06-14 20:47:00,82.8,78.2,29.85,SE,129,3.0,8.0,86,0.00,,---,0.01,VWS V14.01,2013-06-15 01:47:00,
2013-06-14 20:52:00,82.8,78.2,29.85,SE,132,4.0,12.0,86,0.00,,---,0.01,VWS V14.01,2013-06-15 01:52:00,
2013-06-14 20:57:00,82.7,78.1,29.86,ESE,114,10.0,11.0,86,0.00,,---,0.01,VWS V14.01,2013-06-15 01:57:00,
2013-06-14 21:02:00,82.6,78.0,29.86,SE,141,3.0,5.0,86,0.00,,---,0.01,VWS V14.01,2013-06-15 02:02:00,
2013-06-14 21:07:00,82.5,77.9,29.86,SSE,147,5.0,9.0,86,0.00,,---,0.01,VWS V14.01,2013-06-15 02:07:00,
2013-06-14 21:12:00,82.5,77.9,29.85,SSE,155,3.0,6.0,86,0.00,,---,0.01,VWS V14.01,2013-06-15 02:12:00,
2013-06-14 21:17:00,82.5,78.2,29.85,ESE,119,3.0,4.0,87,0.00,,---,0.01,VWS V14.01,2013-06-15 02:17:00,
2013-06-14 21:22:00,82.5,78.2,29.86,SE,144,5.0,6.0,87,0.00,,---,0.01,VWS V14.01,2013-06-15 02:22:00,
2013-06-14 21:27:00,82.4,78.1,29.86,SE,139,9.0,12.0,87,0.00,,---,0.01,VWS V14.01,2013-06-15 02:27:00,
2013-06-14 21:32:00,82.4,78.1,29.86,SE,144,5.0,9.0,87,0.00,,---,0.01,VWS V14.01,2013-06-15 02:32:00,
2013-06-14 21:37:00,82.3,78.1,29.86,SSE,155,9.0,10.0,87,0.00,,---,0.01,VWS V14.01,2013-06-15 02:37:00,
2013-06-14 21:42:00,82.3,78.1,29.86,SSE,155,7.0,10.0,87,0.00,,---,0.01,VWS V14.01,2013-06-15 02:42:00,
2013-06-14 21:47:00,82.3,78.1,29.86,SSE,150,1.0,4.0,87,0.00,,---,0.01,VWS V14.01,2013-06-15 02:47:00,
2013-06-14 21:52:00,82.2,77.9,29.86,SSE,158,4.0,4.0,87,0.00,,---,0.01,VWS V14.01,2013-06-15 02:52:00,
2013-06-14 21:57:00,82.1,77.8,29.87,SE,146,4.0,7.0,87,0.00,,---,0.01,VWS V14.01,2013-06-15 02:57:00,
2013-06-14 22:02:00,82.1,77.8,29.87,SSE,150,2.0,3.0,87,0.00,,---,0.01,VWS V14.01,2013-06-15 03:02:00,
2013-06-14 22:07:00,82.1,77.8,29.87,SE,136,3.0,4.0,87,0.00,,---,0.01,VWS V14.01,2013-06-15 03:07:00,
2013-06-14 22:12:00,82.0,77.8,29.88,SSE,147,5.0,9.0,87,0.00,,---,0.01,VWS V14.01,2013-06-15 03:12:00,
2013-06-14 22:17:00,82.0,77.8,29.88,SE,143,4.0,4.0,87,0.00,,---,0.01,VWS V14.01,2013-06-15 03:17:00,
2013-06-14 22:22:00,81.9,77.7,29.88,SE,138,5.0,5.0,87,0.00,,---,0.01,VWS V14.01,2013-06-15 03:22:00,
2013-06-14 22:27:00,81.9,77.7,29.88,SE,134,4.0,5.0,87,0.00,,---,0.01,VWS V14.01,2013-06-15 03:27:00,
2013-06-14 22:32:00,81.8,77.9,29.88,SE,144,5.0,5.0,88,0.00,,---,0.01,VWS V14.01,2013-06-15 03:32:00,
2013-06-14 22:37:00,81.7,77.8,29.89,SE,132,2.0,4.0,88,0.00,,---,0.01,VWS V14.01,2013-06-15 03:37:00,
2013-06-14 22:42:00,81.7,77.8,29.89,SSE,159,5.0,5.0,88,0.00,,---,0.01,VWS V14.01,2013-06-15 03:42:00,
2013-06-14 22:47:00,81.6,77.7,29.89,SE,146,1.0,3.0,88,0.00,,---,0.01,VWS V14.01,2013-06-15 03:47:00,
2013-06-14 22:52:00,81.6,77.7,29.89,SE,132,3.0,4.0,88,0.00,,---,0.01,VWS V14.01,2013-06-15 03:52:00,
2013-06-14 22:57:00,81.6,77.7,29.89,SE,136,4.0,4.0,88,0.00,,---,0.01,VWS V14.01,2013-06-15 03:57:00,
2013-06-14 23:01:00,81.6,77.7,29.89,SE,140,3.0,3.0,88,0.00,,---,0.01,VWS V14.01,2013-06-15 04:01:00,
2013-06-14 23:06:00,81.6,77.7,29.89,SE,126,1.0,1.0,88,0.00,,---,0.01,VWS V14.01,2013-06-15 04:06:00,
2013-06-14 23:11:00,81.6,77.7,29.89,SSE,152,2.0,4.0,88,0.00,,---,0.01,VWS V14.01,2013-06-15 04:11:00,
2013-06-14 23:16:00,81.5,77.6,29.89,SSE,150,1.0,4.0,88,0.00,,---,0.01,VWS V14.01,2013-06-15 04:16:00,
2013-06-14 23:21:00,81.4,77.5,29.89,SE,133,5.0,5.0,88,0.00,,---,0.01,VWS V14.01,2013-06-15 04:21:00,
2013-06-14 23:26:00,81.4,77.5,29.89,ESE,122,3.0,5.0,88,0.00,,---,0.01,VWS V14.01,2013-06-15 04:26:00,
2013-06-14 23:31:00,81.3,77.8,29.90,SE,138,4.0,5.0,89,0.00,,---,0.01,VWS V14.01,2013-06-15 04:31:00,
2013-06-14 23:36:00,81.2,77.7,29.89,SE,141,2.0,4.0,89,0.00,,---,0.01,VWS V14.01,2013-06-15 04:36:00,
2013-06-14 23:41:00,81.2,77.7,29.89,SE,144,4.0,6.0,89,0.00,,---,0.01,VWS V14.01,2013-06-15 04:41:00,
2013-06-14 23:46:00,81.1,77.6,29.89,SE,141,5.0,5.0,89,0.00,,---,0.01,VWS V14.01,2013-06-15 04:46:00,
2013-06-14 23:51:00,81.1,77.6,29.89,SSE,163,3.0,4.0,89,0.00,,---,0.01,VWS V14.01,2013-06-15 04:51:00,
2013-06-14 23:56:00,81.0,77.5,29.89,SSE,157,2.0,5.0,89,0.00,,---,0.01,VWS V14.01,2013-06-15 04:56:00,